Time;durP1;ratioP1;P1;durP2;ratioP2;P2;SDS_P1;SDS_P2;PMS_P1;PMS_P2;Temp;Humidity;BMP_temperature;BMP_pressure;BME280_temperature;BME280_humidity;BME280_pressure;Samples;Min_cycle;Max_cycle;Signal;HPM_P1;HPM_P2
2023/07/20 00:00:25;;;;;;;2.38;2.17;;;15.10;99.90;;;;;;5101208;28;20044;-82
2023/07/20 00:02:51;;;;;;;1.80;1.70;;;15.10;99.90;;;;;;5093106;28;20390;-82
2023/07/20 00:05:24;;;;;;;1.73;1.63;;;15.10;99.90;;;;;;5108892;28;20053;-82
2023/07/20 00:07:51;;;;;;;2.28;1.90;;;15.10;99.90;;;;;;5087604;28;20054;-82
2023/07/20 00:10:17;;;;;;;2.28;2.08;;;15.10;99.90;;;;;;5109805;28;20055;-82
2023/07/20 00:12:47;;;;;;;2.17;1.88;;;15.30;99.90;;;;;;5100151;28;20573;-81
2023/07/20 00:15:13;;;;;;;1.90;1.80;;;15.10;99.90;;;;;;5085708;28;20151;-82
2023/07/20 00:17:39;;;;;;;2.30;1.98;;;15.10;99.90;;;;;;5089579;28;20052;-82
2023/07/20 00:20:06;;;;;;;2.17;1.95;;;15.00;99.90;;;;;;5100027;28;20048;-82
2023/07/20 00:22:31;;;;;;;2.42;2.08;;;15.10;99.90;;;;;;5090760;28;20048;-82
2023/07/20 00:24:57;;;;;;;2.13;1.92;;;15.00;99.90;;;;;;5094188;28;20507;-82
2023/07/20 00:27:22;;;;;;;2.13;2.03;;;15.10;99.90;;;;;;5085730;28;20074;-82
2023/07/20 00:29:48;;;;;;;2.60;2.40;;;15.10;99.90;;;;;;5101914;28;20082;-82
2023/07/20 00:32:14;;;;;;;2.63;2.30;;;15.10;99.90;;;;;;5101488;28;20051;-82
2023/07/20 00:34:39;;;;;;;2.60;2.40;;;15.10;99.90;;;;;;5094713;28;20080;-82
2023/07/20 00:37:05;;;;;;;2.60;2.40;;;15.10;99.90;;;;;;5119775;27;20036;-81
2023/07/20 00:39:30;;;;;;;3.22;3.00;;;15.10;99.90;;;;;;5097478;28;20067;-82
2023/07/20 00:41:56;;;;;;;3.20;3.00;;;15.10;99.90;;;;;;5089322;28;20044;-82
2023/07/20 00:44:22;;;;;;;2.92;2.72;;;15.20;99.90;;;;;;5092578;28;20151;-82
2023/07/20 00:46:48;;;;;;;3.00;2.80;;;15.10;99.90;;;;;;5085367;28;20100;-81
2023/07/20 00:49:14;;;;;;;3.40;2.80;;;15.10;99.90;;;;;;5091796;28;20044;-82
2023/07/20 00:51:41;;;;;;;3.13;2.78;;;15.10;99.90;;;;;;5098401;28;20043;-82
2023/07/20 00:54:08;;;;;;;3.38;3.08;;;15.70;99.90;;;;;;5103962;28;20505;-82
2023/07/20 00:56:33;;;;;;;3.25;2.95;;;15.10;99.90;;;;;;5091064;28;20044;-81
2023/07/20 00:58:59;;;;;;;3.47;3.20;;;15.10;99.90;;;;;;5109206;28;20409;-82
2023/07/20 01:01:25;;;;;;;3.50;3.20;;;15.10;99.90;;;;;;5077627;28;20040;-82
2023/07/20 01:03:50;;;;;;;3.35;3.10;;;15.10;99.90;;;;;;5089665;28;20455;-82
2023/07/20 01:06:19;;;;;;;3.95;3.65;;;15.10;99.90;;;;;;5090938;28;20130;-82
2023/07/20 01:09:27;;;;;;;4.05;3.75;;;15.10;99.90;;;;;;5105116;28;20457;-82
2023/07/20 01:11:59;;;;;;;4.00;3.70;;;15.10;99.90;;;;;;5089133;28;20048;-82
2023/07/20 01:14:25;;;;;;;4.18;3.88;;;15.10;99.90;;;;;;5108663;28;20517;-82
2023/07/20 01:16:52;;;;;;;4.25;3.95;;;15.10;99.90;;;;;;5074152;28;20071;-82
2023/07/20 01:19:18;;;;;;;4.53;4.13;;;15.00;99.90;;;;;;5071832;28;20127;-82
2023/07/20 01:21:59;;;;;;;4.32;3.95;;;15.70;99.90;;;;;;5084392;28;20047;-82
2023/07/20 01:24:49;;;;;;;4.53;4.13;;;15.00;99.90;;;;;;5071473;28;20157;-82
2023/07/20 01:27:44;;;;;;;4.15;3.85;;;15.00;99.90;;;;;;5071450;28;20043;-82
2023/07/20 01:30:43;;;;;;;4.60;4.20;;;14.90;99.90;;;;;;5088144;28;20094;-82
2023/07/20 01:33:11;;;;;;;4.82;4.40;;;14.90;99.90;;;;;;5071443;28;20142;-82
2023/07/20 01:35:40;;;;;;;5.07;4.68;;;15.60;99.90;;;;;;5095970;28;20044;-82
2023/07/20 01:38:08;;;;;;;4.55;4.15;;;15.10;99.90;;;;;;5087528;28;20051;-82
2023/07/20 01:40:34;;;;;;;4.53;4.05;;;14.90;99.90;;;;;;5097192;28;20051;-82
2023/07/20 01:42:59;;;;;;;4.70;4.30;;;15.30;99.90;;;;;;5108827;28;20046;-83
2023/07/20 01:45:26;;;;;;;5.10;4.70;;;14.70;99.90;;;;;;5106978;28;20039;-82
2023/07/20 01:47:52;;;;;;;5.15;4.75;;;14.60;99.90;;;;;;5108373;28;20043;-83
2023/07/20 01:50:17;;;;;;;4.75;4.45;;;14.50;99.90;;;;;;5099219;28;20051;-82
2023/07/20 01:52:43;;;;;;;4.53;4.13;;;14.50;99.90;;;;;;5088687;28;20060;-82
2023/07/20 01:55:09;;;;;;;4.88;4.38;;;15.20;99.90;;;;;;5089086;28;20048;-82
2023/07/20 01:57:34;;;;;;;4.97;4.57;;;14.30;99.90;;;;;;5105431;28;20035;-82
2023/07/20 02:00:00;;;;;;;5.43;4.80;;;14.30;99.90;;;;;;5106540;28;20100;-82
2023/07/20 02:02:28;;;;;;;4.78;4.38;;;14.20;99.90;;;;;;5109048;28;20044;-82
2023/07/20 02:04:53;;;;;;;4.97;4.47;;;14.20;99.90;;;;;;5106776;28;20052;-82
2023/07/20 02:07:19;;;;;;;5.05;4.53;;;14.50;99.90;;;;;;5106545;28;20055;-82
2023/07/20 02:09:45;;;;;;;4.97;4.47;;;14.10;99.90;;;;;;5105290;28;21064;-82
2023/07/20 02:12:10;;;;;;;5.28;4.80;;;14.00;99.90;;;;;;5105914;28;20405;-82
2023/07/20 02:14:36;;;;;;;5.35;4.63;;;13.90;99.90;;;;;;5106739;28;20100;-82
2023/07/20 02:17:01;;;;;;;5.20;4.80;;;14.20;99.90;;;;;;5107224;28;20049;-81
2023/07/20 02:19:29;;;;;;;5.00;4.50;;;13.90;99.90;;;;;;5106194;28;20049;-81
2023/07/20 02:21:55;;;;;;;5.47;5.03;;;13.80;99.90;;;;;;5089655;28;20480;-81
2023/07/20 02:24:20;;;;;;;5.20;4.70;;;13.80;99.90;;;;;;5097896;28;20039;-81
2023/07/20 02:26:46;;;;;;;5.75;4.78;;;13.70;99.90;;;;;;5106578;28;20051;-82
2023/07/20 02:29:12;;;;;;;5.55;5.05;;;13.70;99.90;;;;;;5104509;28;20090;-81
2023/07/20 02:31:39;;;;;;;5.10;4.65;;;14.20;99.90;;;;;;5092882;28;20040;-81
2023/07/20 02:34:05;;;;;;;5.45;4.95;;;13.70;99.90;;;;;;5108382;28;20051;-81
2023/07/20 02:36:32;;;;;;;5.90;5.32;;;13.60;99.90;;;;;;5089044;28;20048;-81
2023/07/20 02:38:58;;;;;;;6.00;5.40;;;13.60;99.90;;;;;;5099492;28;20109;-81
2023/07/20 02:41:24;;;;;;;5.70;5.00;;;13.80;99.90;;;;;;5103192;28;20544;-82
2023/07/20 02:43:50;;;;;;;5.78;5.13;;;13.50;99.90;;;;;;5088730;28;20505;-82
2023/07/20 02:46:15;;;;;;;6.00;5.50;;;13.50;99.90;;;;;;5101741;28;20059;-81
2023/07/20 02:48:41;;;;;;;5.80;5.30;;;13.90;99.90;;;;;;5106440;28;20119;-82
2023/07/20 02:51:07;;;;;;;5.68;5.18;;;13.40;99.90;;;;;;5089555;28;20401;-82
2023/07/20 02:53:33;;;;;;;5.43;4.90;;;13.40;99.90;;;;;;5093020;28;20475;-82
2023/07/20 02:55:59;;;;;;;5.63;5.13;;;13.30;99.90;;;;;;5068351;28;20163;-81
2023/07/20 02:58:24;;;;;;;5.20;4.68;;;13.30;99.90;;;;;;5092657;28;20126;-82
2023/07/20 03:00:50;;;;;;;5.10;4.70;;;13.90;99.90;;;;;;5098868;28;20059;-81
2023/07/20 03:03:16;;;;;;;5.05;4.65;;;13.20;99.90;;;;;;5102792;28;20047;-82
2023/07/20 03:05:41;;;;;;;5.25;4.60;;;13.20;99.90;;;;;;5095330;28;20039;-82
2023/07/20 03:08:07;;;;;;;5.10;4.70;;;13.40;99.90;;;;;;5090390;28;20860;-82
2023/07/20 03:10:38;;;;;;;5.07;4.57;;;13.10;99.90;;;;;;5086274;28;20039;-82
2023/07/20 03:13:03;;;;;;;4.90;4.40;;;13.80;99.90;;;;;;5097213;28;20044;-82
2023/07/20 03:15:29;;;;;;;5.07;4.57;;;13.00;99.90;;;;;;5105843;28;20138;-82
2023/07/20 03:17:58;;;;;;;4.90;4.50;;;13.40;99.90;;;;;;5080200;28;20127;-82
2023/07/20 03:20:24;;;;;;;5.65;4.68;;;13.20;99.90;;;;;;5086609;28;20070;-82
2023/07/20 03:22:52;;;;;;;4.78;4.38;;;12.90;99.90;;;;;;5102386;28;20028;-82
2023/07/20 03:25:17;;;;;;;4.32;3.92;;;12.90;99.90;;;;;;5087856;28;20672;-81
2023/07/20 03:27:43;;;;;;;5.07;4.40;;;12.90;99.90;;;;;;5102475;28;20085;-80
2023/07/20 03:30:09;;;;;;;5.70;4.45;;;12.80;99.90;;;;;;5085978;28;20082;-82
2023/07/20 03:32:35;;;;;;;4.60;4.20;;;12.80;99.90;;;;;;5100604;28;20464;-81
2023/07/20 03:35:01;;;;;;;4.03;3.72;;;12.80;99.90;;;;;;5087645;28;20079;-81
2023/07/20 03:37:27;;;;;;;5.05;4.10;;;12.70;99.90;;;;;;5068753;28;20082;-82
2023/07/20 03:39:52;;;;;;;5.82;4.50;;;12.70;99.90;;;;;;5086803;28;20383;-81
2023/07/20 03:42:18;;;;;;;5.18;4.68;;;12.70;99.90;;;;;;5088094;28;20050;-82
2023/07/20 03:44:43;;;;;;;4.80;4.32;;;12.70;99.90;;;;;;5102992;28;20122;-81
2023/07/20 03:47:09;;;;;;;5.03;4.53;;;12.60;99.90;;;;;;5101653;28;21059;-82
2023/07/20 03:49:35;;;;;;;4.70;4.20;;;12.60;99.90;;;;;;5107288;28;20043;-82
2023/07/20 03:52:03;;;;;;;4.55;4.13;;;12.60;99.90;;;;;;5106104;28;20470;-81
2023/07/20 03:54:29;;;;;;;4.80;4.40;;;12.60;99.90;;;;;;5104484;28;20488;-82
2023/07/20 03:56:54;;;;;;;5.03;3.95;;;13.00;99.90;;;;;;5076988;28;20057;-81
2023/07/20 03:59:20;;;;;;;6.25;4.60;;;13.20;99.90;;;;;;5098977;28;20051;-80
2023/07/20 04:01:46;;;;;;;4.70;4.22;;;12.60;99.90;;;;;;5105579;28;20039;-81
2023/07/20 04:04:11;;;;;;;4.50;4.13;;;12.60;99.90;;;;;;5106411;28;20044;-80
2023/07/20 04:06:38;;;;;;;4.38;3.97;;;12.60;99.90;;;;;;5098493;28;20075;-80
2023/07/20 04:09:07;;;;;;;4.45;4.05;;;12.60;99.90;;;;;;5095817;28;20044;-81
2023/07/20 04:11:32;;;;;;;5.03;4.10;;;12.50;99.90;;;;;;5101889;28;20922;-80
2023/07/20 04:13:58;;;;;;;5.03;4.03;;;12.60;99.90;;;;;;5095554;28;20075;-81
2023/07/20 04:16:23;;;;;;;5.15;3.97;;;12.60;99.90;;;;;;5109100;28;20058;-81
2023/07/20 04:18:49;;;;;;;4.45;3.95;;;12.60;99.90;;;;;;5110366;28;20079;-81
2023/07/20 04:21:14;;;;;;;4.80;4.40;;;12.60;99.90;;;;;;5099468;28;20086;-81
2023/07/20 04:23:40;;;;;;;5.45;4.72;;;12.60;99.90;;;;;;5089942;28;20087;-81
2023/07/20 04:26:06;;;;;;;4.38;3.97;;;12.60;99.90;;;;;;5074492;28;20198;-81
2023/07/20 04:28:32;;;;;;;4.25;3.90;;;12.60;99.90;;;;;;5107222;28;20047;-81
2023/07/20 04:31:11;;;;;;;4.97;4.20;;;12.60;99.90;;;;;;5091323;28;20042;-81
2023/07/20 04:33:36;;;;;;;4.22;3.92;;;12.70;99.90;;;;;;5109749;28;20040;-81
2023/07/20 04:36:02;;;;;;;4.88;4.00;;;12.70;99.90;;;;;;5096178;28;20048;-81
2023/07/20 04:38:28;;;;;;;4.90;4.50;;;12.70;99.90;;;;;;5073907;28;20047;-81
2023/07/20 04:40:54;;;;;;;4.47;4.07;;;12.70;99.90;;;;;;5077277;28;20052;-81
2023/07/20 04:43:19;;;;;;;4.68;4.18;;;12.80;99.90;;;;;;5099382;28;20040;-81
2023/07/20 04:45:45;;;;;;;4.72;4.05;;;12.80;99.90;;;;;;5089067;28;20048;-81
2023/07/20 04:48:15;;;;;;;5.45;3.97;;;12.80;99.90;;;;;;5088232;28;20047;-80
2023/07/20 04:50:42;;;;;;;5.07;4.55;;;12.90;99.90;;;;;;5091558;28;20033;-80
2023/07/20 04:53:10;;;;;;;4.15;3.85;;;12.90;99.90;;;;;;5089815;28;20056;-81
2023/07/20 04:55:36;;;;;;;5.25;4.50;;;13.00;99.90;;;;;;5117667;27;20083;-81
2023/07/20 04:58:03;;;;;;;4.53;4.13;;;13.00;99.90;;;;;;5080070;28;20097;-82
2023/07/20 05:00:29;;;;;;;4.45;4.05;;;13.10;99.90;;;;;;5096382;28;20043;-80
2023/07/20 05:02:56;;;;;;;4.40;3.75;;;13.10;99.90;;;;;;5090447;28;20040;-81
2023/07/20 05:05:22;;;;;;;4.35;3.95;;;13.20;99.90;;;;;;5090781;28;20058;-82
2023/07/20 05:07:47;;;;;;;5.15;3.90;;;13.40;99.90;;;;;;5098112;28;20409;-81
2023/07/20 05:10:13;;;;;;;4.10;3.75;;;13.30;99.90;;;;;;5093771;28;20043;-84
2023/07/20 05:12:39;;;;;;;4.85;3.90;;;13.30;99.90;;;;;;5090202;28;20486;-82
2023/07/20 05:15:05;;;;;;;3.92;3.40;;;13.40;99.90;;;;;;5096323;28;20048;-82
2023/07/20 05:17:33;;;;;;;4.45;3.70;;;13.40;99.90;;;;;;5104239;28;20508;-81
2023/07/20 05:19:59;;;;;;;4.05;3.65;;;13.50;99.90;;;;;;5108219;28;20089;-81
2023/07/20 05:22:24;;;;;;;4.03;3.63;;;13.50;99.90;;;;;;5103085;28;20040;-81
2023/07/20 05:24:53;;;;;;;4.28;3.88;;;13.60;99.90;;;;;;5088562;28;20032;-81
2023/07/20 05:27:19;;;;;;;4.03;3.45;;;13.60;99.90;;;;;;5087142;28;20040;-81
2023/07/20 05:29:45;;;;;;;4.05;3.65;;;13.70;99.90;;;;;;5096323;28;20088;-82
2023/07/20 05:32:11;;;;;;;4.32;3.25;;;13.70;99.90;;;;;;5072371;28;20095;-82
2023/07/20 05:34:37;;;;;;;3.95;3.35;;;13.80;99.90;;;;;;5097630;28;20051;-81
2023/07/20 05:37:02;;;;;;;3.95;3.65;;;13.90;99.90;;;;;;5109142;28;20090;-82
2023/07/20 05:39:28;;;;;;;4.47;3.60;;;13.90;99.90;;;;;;5108355;28;20485;-80
2023/07/20 05:41:53;;;;;;;3.53;3.22;;;14.00;99.90;;;;;;5090311;28;20087;-81
2023/07/20 05:44:19;;;;;;;3.60;3.30;;;14.10;99.90;;;;;;5089785;28;20036;-81
2023/07/20 05:46:44;;;;;;;3.85;3.10;;;14.60;99.90;;;;;;5090629;28;20127;-82
2023/07/20 05:49:10;;;;;;;2.58;2.40;;;15.90;99.90;;;;;;5088001;28;20479;-81
2023/07/20 05:51:36;;;;;;;2.97;2.25;;;17.20;99.90;;;;;;5070661;28;20359;-82
2023/07/20 05:54:02;;;;;;;3.25;2.40;;;18.30;99.90;;;;;;5090212;28;20079;-81
2023/07/20 05:56:27;;;;;;;2.50;2.20;;;19.10;99.90;;;;;;5089961;28;20051;-82
2023/07/20 05:58:53;;;;;;;3.33;2.10;;;20.20;99.90;;;;;;5106112;28;20040;-81
2023/07/20 06:01:19;;;;;;;3.50;2.10;;;20.40;99.90;;;;;;5108251;28;20097;-84
2023/07/20 06:03:44;;;;;;;2.20;2.00;;;20.80;99.90;;;;;;5109302;28;20130;-82
2023/07/20 06:06:11;;;;;;;4.50;1.98;;;21.20;99.90;;;;;;5107523;28;20047;-83
2023/07/20 06:08:37;;;;;;;4.78;1.80;;;21.50;99.90;;;;;;5107861;28;20493;-83
2023/07/20 06:11:03;;;;;;;2.50;1.40;;;21.80;99.90;;;;;;5098363;28;20509;-82
2023/07/20 06:13:29;;;;;;;1.60;1.50;;;22.00;99.90;;;;;;5077996;28;20050;-82
2023/07/20 06:15:55;;;;;;;2.63;1.40;;;22.20;99.90;;;;;;5087524;28;20048;-82
2023/07/20 06:18:22;;;;;;;2.78;1.40;;;22.50;99.90;;;;;;5097666;28;20094;-82
2023/07/20 06:20:52;;;;;;;3.10;1.50;;;22.60;99.90;;;;;;5107887;28;20055;-83
2023/07/20 06:23:19;;;;;;;1.90;1.30;;;22.50;99.60;;;;;;5107978;28;20035;-82
2023/07/20 06:25:45;;;;;;;1.48;1.38;;;22.60;99.50;;;;;;5107301;28;20084;-82
2023/07/20 06:28:10;;;;;;;1.20;1.10;;;22.50;98.90;;;;;;5079383;28;20084;-83
2023/07/20 06:30:36;;;;;;;3.70;1.30;;;23.10;98.60;;;;;;5086947;28;20044;-83
2023/07/20 06:33:01;;;;;;;1.85;1.00;;;22.90;97.80;;;;;;5082703;28;20383;-84
2023/07/20 06:35:27;;;;;;;1.25;0.98;;;22.80;97.20;;;;;;5107032;28;20116;-83
2023/07/20 06:37:53;;;;;;;1.48;1.20;;;22.70;97.00;;;;;;5107576;28;20046;-83
2023/07/20 06:40:18;;;;;;;2.25;1.00;;;21.90;98.20;;;;;;5107090;28;20043;-84
2023/07/20 06:42:44;;;;;;;1.42;0.80;;;21.10;99.90;;;;;;5107340;28;20130;-83
2023/07/20 06:45:10;;;;;;;1.58;0.80;;;20.30;99.90;;;;;;5105504;28;20059;-84
2023/07/20 06:47:38;;;;;;;1.42;0.77;;;19.60;99.90;;;;;;5092292;28;20078;-84
2023/07/20 06:50:06;;;;;;;2.47;1.00;;;19.20;99.90;;;;;;5106856;28;20069;-83
2023/07/20 06:52:32;;;;;;;3.03;0.90;;;18.90;99.90;;;;;;5106691;28;20055;-83
2023/07/20 06:54:58;;;;;;;1.30;0.80;;;18.80;99.90;;;;;;5107176;28;20043;-82
2023/07/20 06:57:23;;;;;;;2.08;1.10;;;18.70;99.90;;;;;;5107111;28;20051;-83
2023/07/20 06:59:49;;;;;;;1.73;0.98;;;18.60;99.90;;;;;;5107358;28;20054;-83
2023/07/20 07:02:15;;;;;;;3.63;0.90;;;18.60;99.90;;;;;;5103309;28;20040;-83
2023/07/20 07:04:42;;;;;;;1.80;0.90;;;18.60;99.90;;;;;;5087807;28;20113;-83
2023/07/20 07:07:09;;;;;;;1.35;1.10;;;18.40;99.90;;;;;;5087060;28;20101;-83
2023/07/20 07:09:35;;;;;;;0.90;0.60;;;18.40;99.90;;;;;;5086540;28;20052;-86
2023/07/20 07:12:01;;;;;;;2.75;0.98;;;18.40;99.90;;;;;;5087150;28;20047;-83
2023/07/20 07:14:27;;;;;;;1.13;0.80;;;18.50;99.90;;;;;;5086661;28;20667;-81
2023/07/20 07:16:52;;;;;;;2.08;0.90;;;18.70;99.90;;;;;;5086803;28;20044;-82
2023/07/20 07:19:18;;;;;;;3.22;0.80;;;18.60;99.90;;;;;;5092131;28;20043;-82
2023/07/20 07:21:43;;;;;;;1.63;0.75;;;18.60;99.90;;;;;;5089872;28;20040;-81
2023/07/20 07:24:09;;;;;;;3.25;1.02;;;18.70;99.90;;;;;;5086914;28;20060;-82
2023/07/20 07:26:36;;;;;;;3.22;1.20;;;18.80;99.90;;;;;;5086139;28;20051;-83
2023/07/20 07:29:02;;;;;;;2.72;0.80;;;19.20;99.90;;;;;;5086045;28;20047;-82
2023/07/20 07:31:35;;;;;;;1.10;0.77;;;18.50;99.90;;;;;;5085288;28;20477;-83
2023/07/20 07:34:01;;;;;;;1.25;0.88;;;19.10;99.90;;;;;;5086116;28;20608;-85
2023/07/20 07:36:27;;;;;;;2.67;0.70;;;18.60;99.90;;;;;;5069493;28;20141;-85
2023/07/20 07:38:52;;;;;;;1.20;0.70;;;19.00;99.90;;;;;;5086910;28;20040;-84
2023/07/20 07:41:18;;;;;;;1.77;0.90;;;18.80;99.90;;;;;;5099387;28;20512;-84
2023/07/20 07:43:43;;;;;;;3.38;0.93;;;19.00;99.90;;;;;;5105089;28;20135;-84
2023/07/20 07:46:09;;;;;;;1.33;0.73;;;19.20;99.90;;;;;;5094067;28;20032;-84
2023/07/20 07:48:34;;;;;;;1.00;0.90;;;19.40;99.90;;;;;;5104851;28;20449;-85
2023/07/20 07:51:00;;;;;;;2.75;0.95;;;19.70;99.90;;;;;;5105839;28;20044;-85
2023/07/20 07:53:26;;;;;;;2.10;1.70;;;19.60;99.90;;;;;;5097272;28;20047;-86
2023/07/20 07:55:52;;;;;;;1.42;0.70;;;19.70;99.90;;;;;;5076791;28;20039;-86
2023/07/20 07:58:17;;;;;;;1.63;0.70;;;20.00;99.90;;;;;;5097778;28;20093;-85
2023/07/20 08:00:44;;;;;;;1.08;0.60;;;20.10;99.90;;;;;;5098179;28;20051;-83
2023/07/20 08:03:10;;;;;;;2.70;0.80;;;19.90;99.50;;;;;;5095968;28;20044;-86
2023/07/20 08:05:35;;;;;;;2.15;0.75;;;19.90;99.10;;;;;;5104217;28;20081;-87
2023/07/20 08:08:03;;;;;;;2.08;0.85;;;20.00;99.10;;;;;;5110360;28;20036;-85
2023/07/20 08:10:29;;;;;;;1.60;0.80;;;20.80;99.00;;;;;;5109789;28;20043;-86
2023/07/20 08:12:55;;;;;;;1.55;0.75;;;20.80;98.50;;;;;;5089786;28;20039;-85
2023/07/20 08:15:20;;;;;;;1.48;0.80;;;20.20;97.60;;;;;;5089131;28;20046;-85
2023/07/20 08:17:46;;;;;;;0.90;0.70;;;20.60;97.40;;;;;;5109094;28;20079;-86
2023/07/20 08:20:13;;;;;;;1.00;0.68;;;20.40;97.10;;;;;;5093179;28;20465;-85
2023/07/20 08:22:39;;;;;;;3.47;1.38;;;20.50;96.60;;;;;;5072814;28;20048;-85
2023/07/20 08:25:06;;;;;;;2.10;1.38;;;20.60;96.20;;;;;;5090924;28;20047;-85
2023/07/20 08:27:32;;;;;;;1.42;0.70;;;20.50;95.80;;;;;;5089317;28;20044;-84
2023/07/20 08:29:57;;;;;;;4.13;0.80;;;20.90;96.00;;;;;;5072468;28;20059;-86
2023/07/20 08:32:25;;;;;;;0.95;0.80;;;19.90;96.10;;;;;;5090067;28;20071;-85
2023/07/20 08:34:51;;;;;;;2.13;0.98;;;19.80;96.80;;;;;;5086250;28;20047;-85
2023/07/20 08:37:16;;;;;;;3.20;0.82;;;19.80;97.20;;;;;;5091589;28;20036;-85
2023/07/20 08:39:42;;;;;;;2.33;1.10;;;20.00;97.20;;;;;;5089265;28;20124;-85
2023/07/20 08:42:09;;;;;;;2.00;0.73;;;20.10;96.30;;;;;;5073932;28;20040;-85
2023/07/20 08:44:36;;;;;;;1.00;0.68;;;20.40;96.00;;;;;;5100061;28;20413;-85
2023/07/20 08:47:03;;;;;;;1.45;0.70;;;20.40;95.20;;;;;;5088875;28;20044;-85
2023/07/20 08:49:33;;;;;;;1.90;0.90;;;20.30;94.60;;;;;;5087838;28;20054;-85
2023/07/20 08:52:00;;;;;;;3.97;1.77;;;20.30;94.50;;;;;;5088469;28;20585;-85
2023/07/20 08:54:29;;;;;;;6.07;1.80;;;20.10;95.30;;;;;;5089080;28;20787;-84
2023/07/20 08:56:57;;;;;;;2.50;1.23;;;20.50;94.80;;;;;;5089064;28;20048;-89
2023/07/20 08:59:24;;;;;;;3.47;1.48;;;20.10;94.30;;;;;;5089181;28;20139;-87
2023/07/20 09:01:52;;;;;;;4.90;1.23;;;20.60;94.80;;;;;;5083325;28;20907;-87
2023/07/20 09:04:18;;;;;;;1.98;0.85;;;20.70;94.70;;;;;;5092765;28;20051;-87
2023/07/20 09:06:44;;;;;;;1.35;0.70;;;20.50;92.70;;;;;;5109983;28;20044;-87
2023/07/20 09:09:11;;;;;;;1.80;0.80;;;20.70;92.20;;;;;;5110213;28;20039;-87
2023/07/20 09:11:36;;;;;;;0.88;0.70;;;20.60;90.60;;;;;;5109201;28;20058;-86
2023/07/20 09:14:10;;;;;;;1.23;0.75;;;20.60;90.00;;;;;;5108030;28;20044;-87
2023/07/20 09:16:55;;;;;;;1.65;0.70;;;21.20;86.10;;;;;;5104460;28;20066;-85
2023/07/20 09:19:21;;;;;;;1.08;0.77;;;20.70;86.50;;;;;;5089501;28;20044;-86
2023/07/20 09:21:49;;;;;;;1.55;0.70;;;20.80;90.00;;;;;;5072585;28;20048;-86
2023/07/20 09:24:16;;;;;;;1.05;0.90;;;21.00;87.00;;;;;;5073782;28;20155;-87
2023/07/20 09:26:43;;;;;;;3.75;0.88;;;20.50;86.10;;;;;;5071857;28;20036;-86
2023/07/20 09:29:12;;;;;;;1.13;0.80;;;20.70;86.90;;;;;;5089622;28;20048;-86
2023/07/20 09:31:40;;;;;;;0.63;0.60;;;20.70;87.70;;;;;;5072819;28;20055;-88
2023/07/20 09:34:07;;;;;;;0.85;0.60;;;21.00;83.70;;;;;;5071958;28;20051;-87
2023/07/20 09:36:37;;;;;;;0.98;0.60;;;21.10;79.90;;;;;;5090919;28;20083;-86
2023/07/20 09:39:07;;;;;;;1.33;0.50;;;21.30;81.70;;;;;;5088904;28;20048;-86
2023/07/20 09:41:42;;;;;;;1.15;0.70;;;21.20;78.70;;;;;;5089205;28;20421;-86
2023/07/20 09:44:10;;;;;;;1.42;0.70;;;21.20;77.10;;;;;;5088904;28;20056;-87
2023/07/20 09:46:49;;;;;;;2.22;0.88;;;21.10;77.20;;;;;;5088411;28;20140;-86
2023/07/20 09:49:17;;;;;;;1.52;0.70;;;21.50;75.00;;;;;;5089351;28;20036;-86
2023/07/20 09:51:44;;;;;;;2.13;0.70;;;21.10;77.30;;;;;;5071400;28;20064;-86
2023/07/20 09:54:11;;;;;;;2.17;0.77;;;21.00;77.70;;;;;;5088748;28;20409;-85
2023/07/20 09:56:40;;;;;;;3.97;0.60;;;21.00;78.20;;;;;;5070803;28;20105;-86
2023/07/20 09:59:05;;;;;;;1.50;0.70;;;21.10;78.60;;;;;;5071474;28;20460;-86
2023/07/20 10:01:34;;;;;;;1.27;0.82;;;21.10;79.20;;;;;;5077156;28;20115;-86
2023/07/20 10:04:04;;;;;;;2.13;0.98;;;21.10;79.80;;;;;;5105811;28;20059;-86
2023/07/20 10:06:32;;;;;;;1.67;0.80;;;21.20;80.00;;;;;;5107876;28;20051;-85
2023/07/20 10:09:07;;;;;;;1.17;0.82;;;21.70;79.60;;;;;;5104781;28;20071;-83
2023/07/20 10:11:37;;;;;;;1.45;0.80;;;21.00;76.90;;;;;;5104084;28;20050;-86
2023/07/20 10:14:08;;;;;;;1.77;1.00;;;20.90;78.80;;;;;;5107071;28;20052;-89
2023/07/20 10:16:47;;;;;;;0.95;0.90;;;20.80;80.10;;;;;;5102514;28;20079;-86
2023/07/20 10:19:19;;;;;;;1.38;0.88;;;20.60;80.90;;;;;;5070628;28;20048;-86
2023/07/20 10:21:56;;;;;;;2.20;1.02;;;21.00;81.60;;;;;;5079793;28;20051;-86
2023/07/20 10:24:24;;;;;;;1.58;1.00;;;21.20;80.40;;;;;;5087153;28;20044;-86
2023/07/20 10:26:50;;;;;;;1.42;0.90;;;21.20;79.20;;;;;;5087397;28;20047;-85
2023/07/20 10:29:16;;;;;;;1.63;0.88;;;21.30;78.00;;;;;;5087803;28;20124;-86
2023/07/20 10:31:43;;;;;;;1.90;1.00;;;21.20;77.10;;;;;;5069665;28;20052;-84
2023/07/20 10:34:08;;;;;;;1.55;0.82;;;21.80;75.80;;;;;;5088704;28;20043;-86
2023/07/20 10:36:46;;;;;;;1.92;1.02;;;21.60;74.00;;;;;;5087216;28;20039;-85
2023/07/20 10:39:33;;;;;;;1.02;0.82;;;21.40;73.80;;;;;;5106101;28;20358;-86
2023/07/20 10:42:10;;;;;;;1.80;1.05;;;21.30;73.60;;;;;;5091667;28;20129;-86
2023/07/20 10:44:40;;;;;;;2.30;0.70;;;21.20;73.40;;;;;;5087190;28;20108;-85
2023/07/20 10:47:10;;;;;;;1.90;0.90;;;21.70;75.70;;;;;;5086942;28;20051;-86
2023/07/20 10:50:00;;;;;;;2.22;0.77;;;21.10;76.50;;;;;;5085705;28;20052;-85
2023/07/20 10:52:25;;;;;;;1.20;0.90;;;21.50;79.50;;;;;;5100962;28;20521;-85
2023/07/20 10:54:51;;;;;;;1.55;0.80;;;21.70;77.30;;;;;;5086730;28;20052;-86
2023/07/20 10:57:33;;;;;;;2.25;0.77;;;21.90;75.90;;;;;;5086336;28;20090;-86
2023/07/20 11:00:12;;;;;;;;;;;22.00;78.10;;;;;;5086915;28;20048;-86
2023/07/20 11:02:44;;;;;;;1.98;1.00;;;22.10;84.70;;;;;;5086848;28;19924;-85
2023/07/20 11:05:32;;;;;;;2.20;1.10;;;22.00;84.30;;;;;;5069234;28;20093;-85
2023/07/20 11:07:57;;;;;;;2.38;0.90;;;22.10;87.20;;;;;;5091373;28;20040;-85
2023/07/20 11:10:23;;;;;;;1.73;0.90;;;22.10;86.90;;;;;;5069085;28;20706;-85
2023/07/20 11:13:18;;;;;;;1.60;0.95;;;22.00;86.30;;;;;;5086198;28;20147;-85
2023/07/20 11:16:05;;;;;;;1.55;0.90;;;21.70;82.70;;;;;;5068990;28;20388;-85
2023/07/20 11:18:39;;;;;;;0.85;0.73;;;21.60;85.30;;;;;;5069811;28;20048;-86
2023/07/20 11:21:09;;;;;;;1.85;1.00;;;21.20;84.80;;;;;;5086110;28;20063;-86
2023/07/20 11:23:38;;;;;;;1.25;1.00;;;21.30;85.70;;;;;;5085881;28;20059;-85
2023/07/20 11:26:03;;;;;;;1.55;0.80;;;22.10;86.90;;;;;;5070870;28;20386;-86
2023/07/20 11:28:30;;;;;;;3.33;1.00;;;21.40;87.10;;;;;;5069438;28;20040;-85
2023/07/20 11:30:56;;;;;;;5.18;1.55;;;21.30;86.30;;;;;;5078814;28;20028;-86
2023/07/20 11:33:21;;;;;;;3.05;1.10;;;21.30;85.60;;;;;;5069193;28;20127;-86
2023/07/20 11:35:50;;;;;;;2.42;0.90;;;21.30;87.10;;;;;;5068969;28;20212;-86
2023/07/20 11:38:16;;;;;;;2.28;0.90;;;21.60;87.40;;;;;;5086043;28;20044;-85
2023/07/20 11:40:44;;;;;;;2.33;0.90;;;21.50;87.50;;;;;;5073730;28;20048;-87
2023/07/20 11:43:11;;;;;;;1.40;1.10;;;21.70;86.10;;;;;;5087123;28;20123;-86
2023/07/20 11:45:38;;;;;;;3.63;1.25;;;22.20;86.60;;;;;;5086453;28;20529;-86
2023/07/20 11:48:04;;;;;;;4.28;1.00;;;22.20;85.40;;;;;;5069610;28;20105;-86
2023/07/20 11:50:30;;;;;;;1.92;0.90;;;22.00;85.40;;;;;;5067740;28;20047;-86
2023/07/20 11:52:56;;;;;;;1.77;0.90;;;22.30;85.60;;;;;;5085890;28;20112;-86
2023/07/20 11:55:22;;;;;;;2.35;0.90;;;21.80;86.50;;;;;;5068906;28;20168;-85
2023/07/20 11:58:07;;;;;;;2.78;1.20;;;22.00;87.60;;;;;;5085842;28;20044;-85
2023/07/20 12:00:34;;;;;;;2.35;1.30;;;22.20;86.50;;;;;;5101911;28;20043;-86
2023/07/20 12:03:00;;;;;;;3.75;0.88;;;22.20;83.10;;;;;;5094449;28;20044;-87
2023/07/20 12:05:26;;;;;;;1.80;0.70;;;22.50;83.60;;;;;;5068894;28;20086;-86
2023/07/20 12:07:52;;;;;;;2.42;1.55;;;22.40;85.00;;;;;;5069846;28;20123;-88
2023/07/20 12:10:28;;;;;;;3.50;1.20;;;22.40;84.70;;;;;;5069279;28;20044;-87
2023/07/20 12:12:54;;;;;;;1.10;1.00;;;22.60;83.80;;;;;;5093421;28;20118;-87
2023/07/20 12:15:21;;;;;;;1.70;0.73;;;22.50;83.10;;;;;;5090559;28;20047;-89
2023/07/20 12:17:50;;;;;;;2.00;0.80;;;22.40;83.20;;;;;;5091702;28;20044;-88
2023/07/20 12:20:27;;;;;;;1.92;0.80;;;22.40;83.10;;;;;;5106433;28;20040;-88
2023/07/20 12:22:55;;;;;;;3.40;0.82;;;22.30;82.20;;;;;;5086950;28;20059;-87
2023/07/20 12:25:21;;;;;;;2.10;0.90;;;22.30;84.10;;;;;;5070351;28;20089;-87
2023/07/20 12:27:48;;;;;;;1.17;0.95;;;22.30;84.20;;;;;;5103515;28;20047;-88
2023/07/20 12:30:14;;;;;;;1.58;1.00;;;22.30;84.30;;;;;;5088574;28;20039;-89
2023/07/20 12:32:40;;;;;;;2.78;1.20;;;22.30;84.40;;;;;;5090061;28;20044;-88
2023/07/20 12:35:06;;;;;;;2.33;1.00;;;21.90;84.10;;;;;;5089538;28;20052;-88
2023/07/20 12:37:32;;;;;;;1.83;0.90;;;22.10;85.60;;;;;;5097047;28;20050;-89
2023/07/20 12:39:58;;;;;;;4.25;0.93;;;22.10;86.00;;;;;;5094246;28;20043;-89
2023/07/20 12:42:23;;;;;;;1.23;0.80;;;22.00;85.40;;;;;;5091520;28;20123;-88
2023/07/20 12:44:50;;;;;;;1.58;0.88;;;22.10;85.30;;;;;;5090067;28;20085;-88
2023/07/20 12:47:18;;;;;;;4.25;0.70;;;22.40;85.50;;;;;;5072217;28;20036;-87
2023/07/20 12:49:45;;;;;;;1.48;0.80;;;22.40;85.00;;;;;;5072294;28;20044;-86